sensor_id;sensor_type;location;lat;lon;timestamp;temperature;humidity
16283;DHT22;8249;48.708;9.030;2023-06-26T00:01:32;18.20;99.90
16283;DHT22;8249;48.708;9.030;2023-06-26T00:03:59;18.20;99.90
16283;DHT22;8249;48.708;9.030;2023-06-26T00:06:27;18.10;99.90
16283;DHT22;8249;48.708;9.030;2023-06-26T00:08:55;18.00;99.90
16283;DHT22;8249;48.708;9.030;2023-06-26T00:11:24;17.90;99.90
16283;DHT22;8249;48.708;9.030;2023-06-26T00:13:53;17.90;99.90
16283;DHT22;8249;48.708;9.030;2023-06-26T00:16:21;17.90;99.90
16283;DHT22;8249;48.708;9.030;2023-06-26T00:18:48;17.90;99.90
16283;DHT22;8249;48.708;9.030;2023-06-26T00:21:15;17.90;99.90
16283;DHT22;8249;48.708;9.030;2023-06-26T00:23:42;17.90;99.90
16283;DHT22;8249;48.708;9.030;2023-06-26T00:26:09;17.80;99.90
16283;DHT22;8249;48.708;9.030;2023-06-26T00:28:36;17.70;99.90
16283;DHT22;8249;48.708;9.030;2023-06-26T00:31:03;17.70;99.90
16283;DHT22;8249;48.708;9.030;2023-06-26T00:33:32;17.70;99.90
16283;DHT22;8249;48.708;9.030;2023-06-26T00:35:59;17.60;99.90
16283;DHT22;8249;48.708;9.030;2023-06-26T00:38:26;17.60;99.90
16283;DHT22;8249;48.708;9.030;2023-06-26T00:40:53;17.50;99.90
16283;DHT22;8249;48.708;9.030;2023-06-26T00:43:21;17.50;99.90
16283;DHT22;8249;48.708;9.030;2023-06-26T00:45:48;17.50;99.90
16283;DHT22;8249;48.708;9.030;2023-06-26T00:48:15;17.50;99.90
16283;DHT22;8249;48.708;9.030;2023-06-26T00:50:44;17.40;99.90
16283;DHT22;8249;48.708;9.030;2023-06-26T00:53:11;17.40;99.90
16283;DHT22;8249;48.708;9.030;2023-06-26T00:55:38;17.40;99.90
16283;DHT22;8249;48.708;9.030;2023-06-26T00:58:05;17.30;99.90
16283;DHT22;8249;48.708;9.030;2023-06-26T01:00:32;17.30;99.90
16283;DHT22;8249;48.708;9.030;2023-06-26T01:03:00;17.30;99.90
16283;DHT22;8249;48.708;9.030;2023-06-26T01:05:27;17.20;99.90
16283;DHT22;8249;48.708;9.030;2023-06-26T01:07:57;17.20;99.90
16283;DHT22;8249;48.708;9.030;2023-06-26T01:10:25;17.10;99.90
16283;DHT22;8249;48.708;9.030;2023-06-26T01:12:53;17.10;99.90
16283;DHT22;8249;48.708;9.030;2023-06-26T01:15:21;17.10;99.90
16283;DHT22;8249;48.708;9.030;2023-06-26T01:17:51;17.10;99.90
16283;DHT22;8249;48.708;9.030;2023-06-26T01:20:19;17.00;99.90
16283;DHT22;8249;48.708;9.030;2023-06-26T01:22:56;17.10;99.90
16283;DHT22;8249;48.708;9.030;2023-06-26T01:25:35;17.00;99.90
16283;DHT22;8249;48.708;9.030;2023-06-26T01:28:05;17.00;99.90
16283;DHT22;8249;48.708;9.030;2023-06-26T01:30:34;16.90;99.90
16283;DHT22;8249;48.708;9.030;2023-06-26T01:33:03;16.90;99.90
16283;DHT22;8249;48.708;9.030;2023-06-26T01:35:31;17.00;99.90
16283;DHT22;8249;48.708;9.030;2023-06-26T01:38:12;16.90;99.90
16283;DHT22;8249;48.708;9.030;2023-06-26T01:40:39;16.90;99.90
16283;DHT22;8249;48.708;9.030;2023-06-26T01:43:15;16.90;99.90
16283;DHT22;8249;48.708;9.030;2023-06-26T01:45:44;16.80;99.90
16283;DHT22;8249;48.708;9.030;2023-06-26T01:48:12;16.80;99.90
16283;DHT22;8249;48.708;9.030;2023-06-26T01:50:41;16.80;99.90
16283;DHT22;8249;48.708;9.030;2023-06-26T01:53:13;16.80;99.90
16283;DHT22;8249;48.708;9.030;2023-06-26T01:55:50;16.80;99.90
16283;DHT22;8249;48.708;9.030;2023-06-26T01:58:20;16.70;99.90
16283;DHT22;8249;48.708;9.030;2023-06-26T02:00:49;16.70;99.90
16283;DHT22;8249;48.708;9.030;2023-06-26T02:03:16;16.70;99.90
16283;DHT22;8249;48.708;9.030;2023-06-26T02:05:43;16.70;99.90
16283;DHT22;8249;48.708;9.030;2023-06-26T02:08:14;16.70;99.90
16283;DHT22;8249;48.708;9.030;2023-06-26T02:10:47;16.60;99.90
16283;DHT22;8249;48.708;9.030;2023-06-26T02:13:16;16.60;99.90
16283;DHT22;8249;48.708;9.030;2023-06-26T02:15:44;16.60;99.90
16283;DHT22;8249;48.708;9.030;2023-06-26T02:18:11;16.60;99.90
16283;DHT22;8249;48.708;9.030;2023-06-26T02:20:38;16.50;99.90
16283;DHT22;8249;48.708;9.030;2023-06-26T02:23:05;16.50;99.90
16283;DHT22;8249;48.708;9.030;2023-06-26T02:25:33;16.50;99.90
16283;DHT22;8249;48.708;9.030;2023-06-26T02:28:00;16.50;99.90
16283;DHT22;8249;48.708;9.030;2023-06-26T02:30:27;16.40;99.90
16283;DHT22;8249;48.708;9.030;2023-06-26T02:32:55;16.40;99.90
16283;DHT22;8249;48.708;9.030;2023-06-26T02:35:22;16.40;99.90
16283;DHT22;8249;48.708;9.030;2023-06-26T02:37:49;16.40;99.90
16283;DHT22;8249;48.708;9.030;2023-06-26T02:40:16;16.40;99.90
16283;DHT22;8249;48.708;9.030;2023-06-26T02:42:43;16.40;99.90
16283;DHT22;8249;48.708;9.030;2023-06-26T02:45:11;16.40;99.90
16283;DHT22;8249;48.708;9.030;2023-06-26T02:47:39;16.30;99.90
16283;DHT22;8249;48.708;9.030;2023-06-26T02:50:09;16.30;99.90
16283;DHT22;8249;48.708;9.030;2023-06-26T02:53:02;16.30;99.90
16283;DHT22;8249;48.708;9.030;2023-06-26T02:55:29;16.20;99.90
16283;DHT22;8249;48.708;9.030;2023-06-26T02:57:57;16.20;99.90
16283;DHT22;8249;48.708;9.030;2023-06-26T03:00:24;16.20;99.90
16283;DHT22;8249;48.708;9.030;2023-06-26T03:02:53;16.10;99.90
16283;DHT22;8249;48.708;9.030;2023-06-26T03:05:23;16.10;99.90
16283;DHT22;8249;48.708;9.030;2023-06-26T03:07:51;16.00;99.90
16283;DHT22;8249;48.708;9.030;2023-06-26T03:10:18;16.00;99.90
16283;DHT22;8249;48.708;9.030;2023-06-26T03:12:45;16.00;99.90
16283;DHT22;8249;48.708;9.030;2023-06-26T03:15:12;16.00;99.90
16283;DHT22;8249;48.708;9.030;2023-06-26T03:17:39;16.00;99.90
16283;DHT22;8249;48.708;9.030;2023-06-26T03:20:10;16.00;99.90
16283;DHT22;8249;48.708;9.030;2023-06-26T03:22:48;16.00;99.90
16283;DHT22;8249;48.708;9.030;2023-06-26T03:25:16;16.00;99.90
16283;DHT22;8249;48.708;9.030;2023-06-26T03:27:43;16.00;99.90
16283;DHT22;8249;48.708;9.030;2023-06-26T03:30:12;15.90;99.90
16283;DHT22;8249;48.708;9.030;2023-06-26T03:32:41;15.90;99.90
16283;DHT22;8249;48.708;9.030;2023-06-26T03:35:08;15.90;99.90
16283;DHT22;8249;48.708;9.030;2023-06-26T03:37:35;16.00;99.90
16283;DHT22;8249;48.708;9.030;2023-06-26T03:40:04;16.00;99.90
16283;DHT22;8249;48.708;9.030;2023-06-26T03:42:32;16.00;99.90
16283;DHT22;8249;48.708;9.030;2023-06-26T03:44:59;15.90;99.90
16283;DHT22;8249;48.708;9.030;2023-06-26T03:47:27;16.00;99.90
16283;DHT22;8249;48.708;9.030;2023-06-26T03:49:55;16.10;99.90
16283;DHT22;8249;48.708;9.030;2023-06-26T03:52:22;16.10;99.90
16283;DHT22;8249;48.708;9.030;2023-06-26T03:54:49;16.00;99.90
16283;DHT22;8249;48.708;9.030;2023-06-26T03:57:18;16.10;99.90
16283;DHT22;8249;48.708;9.030;2023-06-26T03:59:47;16.10;99.90
16283;DHT22;8249;48.708;9.030;2023-06-26T04:02:14;16.10;99.90
16283;DHT22;8249;48.708;9.030;2023-06-26T04:04:42;16.10;99.90
16283;DHT22;8249;48.708;9.030;2023-06-26T04:07:09;16.10;99.90
16283;DHT22;8249;48.708;9.030;2023-06-26T04:09:36;16.10;99.90
16283;DHT22;8249;48.708;9.030;2023-06-26T04:12:05;16.10;99.90
16283;DHT22;8249;48.708;9.030;2023-06-26T04:14:34;16.10;99.90
16283;DHT22;8249;48.708;9.030;2023-06-26T04:17:01;16.10;99.90
16283;DHT22;8249;48.708;9.030;2023-06-26T04:19:29;16.20;99.90
16283;DHT22;8249;48.708;9.030;2023-06-26T04:21:56;16.20;99.90
16283;DHT22;8249;48.708;9.030;2023-06-26T04:24:23;16.30;99.90
16283;DHT22;8249;48.708;9.030;2023-06-26T04:26:50;16.30;99.90
16283;DHT22;8249;48.708;9.030;2023-06-26T04:29:17;16.40;99.90
16283;DHT22;8249;48.708;9.030;2023-06-26T04:31:46;16.50;99.90
16283;DHT22;8249;48.708;9.030;2023-06-26T04:34:13;16.60;99.90
16283;DHT22;8249;48.708;9.030;2023-06-26T04:36:40;16.70;99.90
16283;DHT22;8249;48.708;9.030;2023-06-26T04:39:12;16.70;99.90
16283;DHT22;8249;48.708;9.030;2023-06-26T04:41:40;16.80;99.90
16283;DHT22;8249;48.708;9.030;2023-06-26T04:44:07;16.90;99.90
16283;DHT22;8249;48.708;9.030;2023-06-26T04:46:34;17.00;99.90
16283;DHT22;8249;48.708;9.030;2023-06-26T04:49:02;17.10;99.90
16283;DHT22;8249;48.708;9.030;2023-06-26T04:51:29;17.10;99.90
16283;DHT22;8249;48.708;9.030;2023-06-26T04:53:56;17.20;99.90
16283;DHT22;8249;48.708;9.030;2023-06-26T04:56:23;17.30;99.90
16283;DHT22;8249;48.708;9.030;2023-06-26T04:58:50;17.40;99.90
16283;DHT22;8249;48.708;9.030;2023-06-26T05:01:17;17.50;99.90
16283;DHT22;8249;48.708;9.030;2023-06-26T05:03:44;17.60;99.90
16283;DHT22;8249;48.708;9.030;2023-06-26T05:06:14;17.70;99.90
16283;DHT22;8249;48.708;9.030;2023-06-26T05:08:41;17.80;99.90
16283;DHT22;8249;48.708;9.030;2023-06-26T05:11:08;18.00;99.90
16283;DHT22;8249;48.708;9.030;2023-06-26T05:13:36;18.10;99.90
16283;DHT22;8249;48.708;9.030;2023-06-26T05:16:04;18.20;99.90
16283;DHT22;8249;48.708;9.030;2023-06-26T05:18:30;18.30;99.90
16283;DHT22;8249;48.708;9.030;2023-06-26T05:20:58;18.50;99.90
16283;DHT22;8249;48.708;9.030;2023-06-26T05:23:27;18.60;99.90
16283;DHT22;8249;48.708;9.030;2023-06-26T05:25:57;18.80;99.90
16283;DHT22;8249;48.708;9.030;2023-06-26T05:28:25;18.90;99.90
16283;DHT22;8249;48.708;9.030;2023-06-26T05:30:53;19.10;99.90
16283;DHT22;8249;48.708;9.030;2023-06-26T05:33:23;19.30;99.90
16283;DHT22;8249;48.708;9.030;2023-06-26T05:35:52;19.40;99.90
16283;DHT22;8249;48.708;9.030;2023-06-26T05:38:19;19.60;99.90
16283;DHT22;8249;48.708;9.030;2023-06-26T05:40:48;19.80;99.90
16283;DHT22;8249;48.708;9.030;2023-06-26T05:43:16;20.00;99.90
16283;DHT22;8249;48.708;9.030;2023-06-26T05:45:46;20.20;99.90
16283;DHT22;8249;48.708;9.030;2023-06-26T05:48:14;20.30;99.90
16283;DHT22;8249;48.708;9.030;2023-06-26T05:50:42;20.50;99.90
16283;DHT22;8249;48.708;9.030;2023-06-26T05:53:10;20.70;99.90
16283;DHT22;8249;48.708;9.030;2023-06-26T05:55:37;20.90;99.90
16283;DHT22;8249;48.708;9.030;2023-06-26T05:58:06;21.00;99.90
16283;DHT22;8249;48.708;9.030;2023-06-26T06:00:34;21.20;99.90
16283;DHT22;8249;48.708;9.030;2023-06-26T06:03:01;21.30;99.90
16283;DHT22;8249;48.708;9.030;2023-06-26T06:05:28;21.60;99.90
16283;DHT22;8249;48.708;9.030;2023-06-26T06:07:55;21.80;99.90
16283;DHT22;8249;48.708;9.030;2023-06-26T06:10:22;22.00;99.90
16283;DHT22;8249;48.708;9.030;2023-06-26T06:12:49;22.20;99.90
16283;DHT22;8249;48.708;9.030;2023-06-26T06:15:17;22.30;99.90
16283;DHT22;8249;48.708;9.030;2023-06-26T06:17:44;22.40;99.90
16283;DHT22;8249;48.708;9.030;2023-06-26T06:20:11;22.50;99.90
16283;DHT22;8249;48.708;9.030;2023-06-26T06:22:38;22.70;99.90
16283;DHT22;8249;48.708;9.030;2023-06-26T06:25:06;22.80;99.90
16283;DHT22;8249;48.708;9.030;2023-06-26T06:27:33;22.90;99.90
16283;DHT22;8249;48.708;9.030;2023-06-26T06:30:00;23.00;99.90
16283;DHT22;8249;48.708;9.030;2023-06-26T06:32:28;23.10;99.90
16283;DHT22;8249;48.708;9.030;2023-06-26T06:34:55;23.30;99.90
16283;DHT22;8249;48.708;9.030;2023-06-26T06:37:22;23.40;99.90
16283;DHT22;8249;48.708;9.030;2023-06-26T06:39:49;23.50;99.90
16283;DHT22;8249;48.708;9.030;2023-06-26T06:42:16;23.50;99.90
16283;DHT22;8249;48.708;9.030;2023-06-26T06:44:43;23.50;99.90
16283;DHT22;8249;48.708;9.030;2023-06-26T06:47:10;23.50;99.90
16283;DHT22;8249;48.708;9.030;2023-06-26T06:49:38;23.50;99.90
16283;DHT22;8249;48.708;9.030;2023-06-26T06:52:06;23.70;99.90
16283;DHT22;8249;48.708;9.030;2023-06-26T06:54:51;23.70;99.90
16283;DHT22;8249;48.708;9.030;2023-06-26T06:57:18;23.80;99.90
16283;DHT22;8249;48.708;9.030;2023-06-26T06:59:45;23.90;99.90
16283;DHT22;8249;48.708;9.030;2023-06-26T07:02:13;24.00;99.90
16283;DHT22;8249;48.708;9.030;2023-06-26T07:04:41;24.20;99.90
16283;DHT22;8249;48.708;9.030;2023-06-26T07:07:08;24.40;99.90
16283;DHT22;8249;48.708;9.030;2023-06-26T07:09:35;24.40;99.90
16283;DHT22;8249;48.708;9.030;2023-06-26T07:12:03;24.60;99.90
16283;DHT22;8249;48.708;9.030;2023-06-26T07:14:30;24.70;99.90
16283;DHT22;8249;48.708;9.030;2023-06-26T07:16:57;25.00;99.90
16283;DHT22;8249;48.708;9.030;2023-06-26T07:19:24;25.10;99.90
16283;DHT22;8249;48.708;9.030;2023-06-26T07:21:52;25.20;99.90
16283;DHT22;8249;48.708;9.030;2023-06-26T07:24:19;25.30;99.90
16283;DHT22;8249;48.708;9.030;2023-06-26T07:26:46;25.40;99.90
16283;DHT22;8249;48.708;9.030;2023-06-26T07:29:13;25.60;99.90
16283;DHT22;8249;48.708;9.030;2023-06-26T07:31:40;25.80;99.90
16283;DHT22;8249;48.708;9.030;2023-06-26T07:34:07;25.90;99.90
16283;DHT22;8249;48.708;9.030;2023-06-26T07:36:34;26.10;99.90
16283;DHT22;8249;48.708;9.030;2023-06-26T07:39:03;26.30;99.90
16283;DHT22;8249;48.708;9.030;2023-06-26T07:41:30;26.50;99.90
16283;DHT22;8249;48.708;9.030;2023-06-26T07:43:57;26.60;99.90
16283;DHT22;8249;48.708;9.030;2023-06-26T07:46:25;26.80;99.90
16283;DHT22;8249;48.708;9.030;2023-06-26T07:48:52;27.00;99.90
16283;DHT22;8249;48.708;9.030;2023-06-26T07:51:19;27.10;99.90
16283;DHT22;8249;48.708;9.030;2023-06-26T07:53:46;27.10;99.90
16283;DHT22;8249;48.708;9.030;2023-06-26T07:56:15;27.30;99.90
16283;DHT22;8249;48.708;9.030;2023-06-26T07:58:42;27.40;98.80
16283;DHT22;8249;48.708;9.030;2023-06-26T08:01:09;27.60;98.20
16283;DHT22;8249;48.708;9.030;2023-06-26T08:03:36;27.80;97.40
16283;DHT22;8249;48.708;9.030;2023-06-26T08:06:03;27.90;97.70
16283;DHT22;8249;48.708;9.030;2023-06-26T08:08:31;28.00;97.10
16283;DHT22;8249;48.708;9.030;2023-06-26T08:10:58;28.20;96.50
16283;DHT22;8249;48.708;9.030;2023-06-26T08:13:26;28.30;96.80
16283;DHT22;8249;48.708;9.030;2023-06-26T08:15:53;28.40;95.90
16283;DHT22;8249;48.708;9.030;2023-06-26T08:18:20;28.60;95.60
16283;DHT22;8249;48.708;9.030;2023-06-26T08:20:47;28.70;94.90
16283;DHT22;8249;48.708;9.030;2023-06-26T08:23:14;28.90;94.40
16283;DHT22;8249;48.708;9.030;2023-06-26T08:25:41;29.00;94.20
16283;DHT22;8249;48.708;9.030;2023-06-26T08:28:08;28.90;93.50
16283;DHT22;8249;48.708;9.030;2023-06-26T08:30:37;28.90;93.20
16283;DHT22;8249;48.708;9.030;2023-06-26T08:33:04;28.90;93.30
16283;DHT22;8249;48.708;9.030;2023-06-26T08:35:31;29.00;93.00
16283;DHT22;8249;48.708;9.030;2023-06-26T08:37:58;29.10;92.70
16283;DHT22;8249;48.708;9.030;2023-06-26T08:40:25;29.20;92.10
16283;DHT22;8249;48.708;9.030;2023-06-26T08:42:53;29.40;91.50
16283;DHT22;8249;48.708;9.030;2023-06-26T08:45:20;29.40;91.80
16283;DHT22;8249;48.708;9.030;2023-06-26T08:47:51;29.40;91.40
16283;DHT22;8249;48.708;9.030;2023-06-26T08:50:22;29.60;92.00
16283;DHT22;8249;48.708;9.030;2023-06-26T08:52:53;29.70;91.40
16283;DHT22;8249;48.708;9.030;2023-06-26T08:55:23;29.90;91.10
16283;DHT22;8249;48.708;9.030;2023-06-26T08:57:53;30.00;91.00
16283;DHT22;8249;48.708;9.030;2023-06-26T09:00:21;30.10;90.90
16283;DHT22;8249;48.708;9.030;2023-06-26T09:02:49;30.20;91.20
16283;DHT22;8249;48.708;9.030;2023-06-26T09:05:16;30.50;90.20
16283;DHT22;8249;48.708;9.030;2023-06-26T09:07:44;30.50;90.00
16283;DHT22;8249;48.708;9.030;2023-06-26T09:10:11;30.60;90.10
16283;DHT22;8249;48.708;9.030;2023-06-26T09:12:38;30.60;86.90
16283;DHT22;8249;48.708;9.030;2023-06-26T09:15:07;30.60;89.00
16283;DHT22;8249;48.708;9.030;2023-06-26T09:17:38;30.60;86.10
16283;DHT22;8249;48.708;9.030;2023-06-26T09:20:08;30.80;84.80
16283;DHT22;8249;48.708;9.030;2023-06-26T09:22:37;31.00;85.00
16283;DHT22;8249;48.708;9.030;2023-06-26T09:25:05;30.90;83.70
16283;DHT22;8249;48.708;9.030;2023-06-26T09:27:33;31.10;83.30
16283;DHT22;8249;48.708;9.030;2023-06-26T09:30:01;31.10;82.10
16283;DHT22;8249;48.708;9.030;2023-06-26T09:32:28;31.40;84.30
16283;DHT22;8249;48.708;9.030;2023-06-26T09:34:56;31.60;84.20
16283;DHT22;8249;48.708;9.030;2023-06-26T09:37:24;31.90;81.20
16283;DHT22;8249;48.708;9.030;2023-06-26T09:39:51;32.10;81.90
16283;DHT22;8249;48.708;9.030;2023-06-26T09:42:19;31.80;79.70
16283;DHT22;8249;48.708;9.030;2023-06-26T09:44:47;31.70;80.60
16283;DHT22;8249;48.708;9.030;2023-06-26T09:47:16;31.30;80.10
16283;DHT22;8249;48.708;9.030;2023-06-26T09:49:44;31.20;82.80
16283;DHT22;8249;48.708;9.030;2023-06-26T09:52:14;31.20;81.40
16283;DHT22;8249;48.708;9.030;2023-06-26T09:54:43;31.20;80.40
16283;DHT22;8249;48.708;9.030;2023-06-26T09:57:11;31.10;80.70
16283;DHT22;8249;48.708;9.030;2023-06-26T09:59:39;31.10;81.70
16283;DHT22;8249;48.708;9.030;2023-06-26T10:02:06;31.40;80.10
16283;DHT22;8249;48.708;9.030;2023-06-26T10:04:35;31.80;78.90
16283;DHT22;8249;48.708;9.030;2023-06-26T10:07:05;31.70;77.40
16283;DHT22;8249;48.708;9.030;2023-06-26T10:09:33;31.10;78.70
16283;DHT22;8249;48.708;9.030;2023-06-26T10:12:10;30.90;80.20
16283;DHT22;8249;48.708;9.030;2023-06-26T10:14:38;31.30;81.10
16283;DHT22;8249;48.708;9.030;2023-06-26T10:17:09;31.50;80.30
16283;DHT22;8249;48.708;9.030;2023-06-26T10:19:38;31.40;79.00
16283;DHT22;8249;48.708;9.030;2023-06-26T10:22:07;31.20;81.10
16283;DHT22;8249;48.708;9.030;2023-06-26T10:24:37;31.00;80.30
16283;DHT22;8249;48.708;9.030;2023-06-26T10:27:21;31.50;80.70
16283;DHT22;8249;48.708;9.030;2023-06-26T10:29:52;32.00;81.40
16283;DHT22;8249;48.708;9.030;2023-06-26T10:32:20;32.30;84.80
16283;DHT22;8249;48.708;9.030;2023-06-26T10:34:48;32.50;84.20
16283;DHT22;8249;48.708;9.030;2023-06-26T10:37:15;32.50;84.60
16283;DHT22;8249;48.708;9.030;2023-06-26T10:39:49;32.20;83.80
16283;DHT22;8249;48.708;9.030;2023-06-26T10:42:18;31.90;85.00
16283;DHT22;8249;48.708;9.030;2023-06-26T10:44:47;31.80;84.80
16283;DHT22;8249;48.708;9.030;2023-06-26T10:47:29;32.00;85.20
16283;DHT22;8249;48.708;9.030;2023-06-26T10:49:57;32.00;86.80
16283;DHT22;8249;48.708;9.030;2023-06-26T10:52:42;32.00;84.70
16283;DHT22;8249;48.708;9.030;2023-06-26T10:55:09;31.80;84.90
16283;DHT22;8249;48.708;9.030;2023-06-26T10:57:40;31.70;85.80
16283;DHT22;8249;48.708;9.030;2023-06-26T11:00:11;31.30;86.60
16283;DHT22;8249;48.708;9.030;2023-06-26T11:02:49;31.40;85.90
16283;DHT22;8249;48.708;9.030;2023-06-26T11:05:27;31.10;85.10
16283;DHT22;8249;48.708;9.030;2023-06-26T11:08:04;30.90;86.80
16283;DHT22;8249;48.708;9.030;2023-06-26T11:10:51;30.70;86.10
16283;DHT22;8249;48.708;9.030;2023-06-26T11:13:20;30.70;85.20
16283;DHT22;8249;48.708;9.030;2023-06-26T11:15:47;30.40;86.30
16283;DHT22;8249;48.708;9.030;2023-06-26T11:18:15;30.20;87.50
16283;DHT22;8249;48.708;9.030;2023-06-26T11:20:42;30.50;86.20
16283;DHT22;8249;48.708;9.030;2023-06-26T11:23:09;31.00;86.20
16283;DHT22;8249;48.708;9.030;2023-06-26T11:25:37;30.70;84.80
16283;DHT22;8249;48.708;9.030;2023-06-26T11:28:05;30.20;86.00
16283;DHT22;8249;48.708;9.030;2023-06-26T11:30:33;30.00;87.50
16283;DHT22;8249;48.708;9.030;2023-06-26T11:33:04;29.80;86.70
16283;DHT22;8249;48.708;9.030;2023-06-26T11:35:31;29.40;87.80
16283;DHT22;8249;48.708;9.030;2023-06-26T11:37:59;29.60;89.10
16283;DHT22;8249;48.708;9.030;2023-06-26T11:40:30;30.20;88.60
16283;DHT22;8249;48.708;9.030;2023-06-26T11:43:00;30.80;87.40
16283;DHT22;8249;48.708;9.030;2023-06-26T11:45:28;31.10;88.90
16283;DHT22;8249;48.708;9.030;2023-06-26T11:47:57;31.50;86.40
16283;DHT22;8249;48.708;9.030;2023-06-26T11:50:25;31.60;86.40
16283;DHT22;8249;48.708;9.030;2023-06-26T11:52:56;31.80;86.10
16283;DHT22;8249;48.708;9.030;2023-06-26T11:55:23;32.20;86.40
16283;DHT22;8249;48.708;9.030;2023-06-26T11:57:53;32.60;86.00
16283;DHT22;8249;48.708;9.030;2023-06-26T12:00:21;32.40;86.10
16283;DHT22;8249;48.708;9.030;2023-06-26T12:02:49;32.70;85.20
16283;DHT22;8249;48.708;9.030;2023-06-26T12:05:19;32.90;86.40
16283;DHT22;8249;48.708;9.030;2023-06-26T12:07:47;32.60;85.00
16283;DHT22;8249;48.708;9.030;2023-06-26T12:10:16;32.70;85.30
16283;DHT22;8249;48.708;9.030;2023-06-26T12:12:45;32.70;85.30
16283;DHT22;8249;48.708;9.030;2023-06-26T12:15:14;32.70;85.60
16283;DHT22;8249;48.708;9.030;2023-06-26T12:17:42;32.70;85.20
16283;DHT22;8249;48.708;9.030;2023-06-26T12:20:19;32.50;86.50
16283;DHT22;8249;48.708;9.030;2023-06-26T12:22:47;32.40;85.90
16283;DHT22;8249;48.708;9.030;2023-06-26T12:25:14;32.30;85.80
16283;DHT22;8249;48.708;9.030;2023-06-26T12:27:44;32.40;86.40
16283;DHT22;8249;48.708;9.030;2023-06-26T12:30:12;32.40;86.70
16283;DHT22;8249;48.708;9.030;2023-06-26T12:32:43;32.20;86.70
16283;DHT22;8249;48.708;9.030;2023-06-26T12:35:11;32.10;87.20
16283;DHT22;8249;48.708;9.030;2023-06-26T12:37:39;32.20;87.40
16283;DHT22;8249;48.708;9.030;2023-06-26T12:40:16;32.20;87.70
16283;DHT22;8249;48.708;9.030;2023-06-26T12:42:45;32.20;87.20
16283;DHT22;8249;48.708;9.030;2023-06-26T12:45:13;31.60;87.50
16283;DHT22;8249;48.708;9.030;2023-06-26T12:47:41;31.90;89.20
16283;DHT22;8249;48.708;9.030;2023-06-26T12:50:08;32.20;90.20
16283;DHT22;8249;48.708;9.030;2023-06-26T12:52:35;32.20;87.20
16283;DHT22;8249;48.708;9.030;2023-06-26T12:55:05;31.80;88.40
16283;DHT22;8249;48.708;9.030;2023-06-26T12:57:32;31.90;89.50
16283;DHT22;8249;48.708;9.030;2023-06-26T13:00:00;31.80;88.70
16283;DHT22;8249;48.708;9.030;2023-06-26T13:02:27;31.70;88.40
16283;DHT22;8249;48.708;9.030;2023-06-26T13:04:54;31.40;88.50
16283;DHT22;8249;48.708;9.030;2023-06-26T13:07:21;31.60;89.40
16283;DHT22;8249;48.708;9.030;2023-06-26T13:09:50;31.60;88.60
16283;DHT22;8249;48.708;9.030;2023-06-26T13:12:19;31.20;87.90
16283;DHT22;8249;48.708;9.030;2023-06-26T13:14:46;30.60;88.90
16283;DHT22;8249;48.708;9.030;2023-06-26T13:17:13;30.90;89.00
16283;DHT22;8249;48.708;9.030;2023-06-26T13:19:40;30.90;88.40
16283;DHT22;8249;48.708;9.030;2023-06-26T13:22:09;31.20;88.30
16283;DHT22;8249;48.708;9.030;2023-06-26T13:24:36;31.40;88.70
16283;DHT22;8249;48.708;9.030;2023-06-26T13:27:03;31.50;86.70
16283;DHT22;8249;48.708;9.030;2023-06-26T13:29:32;31.30;87.60
16283;DHT22;8249;48.708;9.030;2023-06-26T13:32:00;31.00;87.30
16283;DHT22;8249;48.708;9.030;2023-06-26T13:34:27;31.00;86.80
16283;DHT22;8249;48.708;9.030;2023-06-26T13:36:56;31.20;86.70
16283;DHT22;8249;48.708;9.030;2023-06-26T13:39:25;31.10;87.20
16283;DHT22;8249;48.708;9.030;2023-06-26T13:41:52;31.00;86.10
16283;DHT22;8249;48.708;9.030;2023-06-26T13:44:19;30.70;86.00
16283;DHT22;8249;48.708;9.030;2023-06-26T13:46:47;30.50;86.80
16283;DHT22;8249;48.708;9.030;2023-06-26T13:49:14;30.50;86.70
16283;DHT22;8249;48.708;9.030;2023-06-26T13:51:41;30.60;85.90
16283;DHT22;8249;48.708;9.030;2023-06-26T13:54:12;30.80;86.20
16283;DHT22;8249;48.708;9.030;2023-06-26T13:56:39;30.70;85.30
16283;DHT22;8249;48.708;9.030;2023-06-26T13:59:06;30.80;85.40
16283;DHT22;8249;48.708;9.030;2023-06-26T14:01:33;30.60;84.50
16283;DHT22;8249;48.708;9.030;2023-06-26T14:04:01;30.60;83.80
16283;DHT22;8249;48.708;9.030;2023-06-26T14:06:28;30.60;83.80
16283;DHT22;8249;48.708;9.030;2023-06-26T14:08:58;30.40;83.30
16283;DHT22;8249;48.708;9.030;2023-06-26T14:11:25;30.40;83.90
16283;DHT22;8249;48.708;9.030;2023-06-26T14:13:52;30.60;84.20
16283;DHT22;8249;48.708;9.030;2023-06-26T14:16:19;30.60;82.90
16283;DHT22;8249;48.708;9.030;2023-06-26T14:18:46;30.40;82.90
16283;DHT22;8249;48.708;9.030;2023-06-26T14:21:15;30.50;83.00
16283;DHT22;8249;48.708;9.030;2023-06-26T14:23:42;30.40;83.10
16283;DHT22;8249;48.708;9.030;2023-06-26T14:26:09;30.20;83.10
16283;DHT22;8249;48.708;9.030;2023-06-26T14:28:36;30.10;83.00
16283;DHT22;8249;48.708;9.030;2023-06-26T14:31:03;30.10;82.80
16283;DHT22;8249;48.708;9.030;2023-06-26T14:33:30;30.30;83.90
16283;DHT22;8249;48.708;9.030;2023-06-26T14:35:57;30.50;81.70
16283;DHT22;8249;48.708;9.030;2023-06-26T14:38:26;30.60;81.30
16283;DHT22;8249;48.708;9.030;2023-06-26T14:40:53;30.60;82.80
16283;DHT22;8249;48.708;9.030;2023-06-26T14:43:20;30.60;80.90
16283;DHT22;8249;48.708;9.030;2023-06-26T14:45:47;30.50;80.90
16283;DHT22;8249;48.708;9.030;2023-06-26T14:48:14;30.40;80.40
16283;DHT22;8249;48.708;9.030;2023-06-26T14:50:41;30.20;81.30
16283;DHT22;8249;48.708;9.030;2023-06-26T14:53:08;30.30;81.80
16283;DHT22;8249;48.708;9.030;2023-06-26T14:55:36;30.30;82.00
16283;DHT22;8249;48.708;9.030;2023-06-26T14:58:03;30.10;81.90
16283;DHT22;8249;48.708;9.030;2023-06-26T15:00:30;29.80;83.00
16283;DHT22;8249;48.708;9.030;2023-06-26T15:02:57;29.60;83.00
16283;DHT22;8249;48.708;9.030;2023-06-26T15:05:25;29.50;83.10
16283;DHT22;8249;48.708;9.030;2023-06-26T15:07:52;29.30;83.80
16283;DHT22;8249;48.708;9.030;2023-06-26T15:10:19;29.50;83.70
16283;DHT22;8249;48.708;9.030;2023-06-26T15:12:48;29.10;83.70
16283;DHT22;8249;48.708;9.030;2023-06-26T15:15:15;29.10;84.50
16283;DHT22;8249;48.708;9.030;2023-06-26T15:17:43;29.20;83.90
16283;DHT22;8249;48.708;9.030;2023-06-26T15:20:11;29.00;83.70
16283;DHT22;8249;48.708;9.030;2023-06-26T15:22:38;29.00;84.10
16283;DHT22;8249;48.708;9.030;2023-06-26T15:25:07;28.90;84.00
16283;DHT22;8249;48.708;9.030;2023-06-26T15:27:35;28.70;84.40
16283;DHT22;8249;48.708;9.030;2023-06-26T15:30:04;28.60;84.90
16283;DHT22;8249;48.708;9.030;2023-06-26T15:32:32;28.40;84.50
16283;DHT22;8249;48.708;9.030;2023-06-26T15:34:59;28.40;84.70
16283;DHT22;8249;48.708;9.030;2023-06-26T15:37:26;28.10;84.90
16283;DHT22;8249;48.708;9.030;2023-06-26T15:39:53;27.80;84.50
16283;DHT22;8249;48.708;9.030;2023-06-26T15:42:20;27.60;85.30
16283;DHT22;8249;48.708;9.030;2023-06-26T15:44:47;27.50;85.80
16283;DHT22;8249;48.708;9.030;2023-06-26T15:47:15;27.40;85.80
16283;DHT22;8249;48.708;9.030;2023-06-26T15:49:42;27.40;86.20
16283;DHT22;8249;48.708;9.030;2023-06-26T15:52:10;27.50;85.80